Flight Track Log - Related Links

Times and Time Zones

All times are in EDT time to prevent confusion due to time zone crossing. See the EGF4043 flight status page for this flight to view local times or setup timezone preferences in your user account.

Time Position Orientation Groundspeed Altitude Reporting Facility
EDT Latitude Longitude Course Direction KTS MPH feet Rate Location/Type
Mon 11:12:14 PM 42.0000 -87.9333 261° West 173 199 1,600  Level Chicago TRACON
Mon 11:13:20 PM 42.0500 -87.9833 323° Northwest 211 243 5,300 2,943 Climbing Chicago TRACON
Mon 11:14:00 PM 41.9333 -88.2795 270° West  Level FlightAware Approximate
Mon 11:15:00 PM 41.9187 -88.4064 255° West  Level FlightAware Approximate
Mon 11:15:46 PM 42.0917 -88.1186 293° West 213 245 12,000  Level Chicago Center
Mon 11:16:00 PM 41.9087 -88.5348 261° West  Level FlightAware Approximate
Mon 11:16:47 PM 42.0775 -88.2189 259° West 266 306 13,300  Level Chicago Center
Mon 11:17:00 PM 41.8937 -88.6627 261° West  Level FlightAware Approximate
Mon 11:17:48 PM 42.0611 -88.3378 260° West 314 361 14,400  Level Chicago Center
Mon 11:18:49 PM 42.0342 -88.4586 253° West 337 388 15,500 1,230 Climbing Chicago Center
Mon 11:19:50 PM 41.9981 -88.6075 252° West 352 405 16,900 1,131 Climbing Chicago Center
Mon 11:20:51 PM 41.9667 -88.7367 252° West 362 417 17,800 1,131 Climbing Chicago Center
Mon 11:21:52 PM 41.9344 -88.8717 252° West 378 435 19,200 1,377 Climbing Chicago Center
Mon 11:22:53 PM 41.9064 -89.0086 255° West 384 442 20,600 1,377 Climbing Chicago Center
Mon 11:23:54 PM 41.8783 -89.1456 255° West 385 443 22,000 1,377 Climbing Chicago Center
Mon 11:24:55 PM 41.8517 -89.2803 255° West 378 435 23,400 1,426 Climbing Chicago Center
Mon 11:25:56 PM 41.8364 -89.4150 261° West 372 428 24,900 1,426 Climbing Chicago Center
Mon 11:26:57 PM 41.8325 -89.5533 268° West 374 430 26,300 1,377 Climbing Chicago Center
Mon 11:27:58 PM 41.8233 -89.6914 265° West 374 430 27,700 836 Climbing Chicago Center
Mon 11:28:59 PM 41.8139 -89.8625 266° West 382 440 28,000 148 Climbing Chicago Center
Mon 11:30:00 PM 41.8100 -89.9958 268° West 413 475 28,000  Level Chicago Center
Mon 11:31:01 PM 41.8011 -90.1750 266° West 425 489 28,000  Level Chicago Center
Mon 11:32:02 PM 41.7869 -90.3433 264° West 446 513 28,000  Level Chicago Center
Mon 11:33:03 PM 41.7761 -90.5064 265° West 446 513 28,000  Level Chicago Center
Mon 11:34:04 PM 41.7658 -90.6769 265° West 441 507 28,000  Level Chicago Center
Mon 11:35:05 PM 41.7547 -90.8403 265° West 442 509 28,000  Level Chicago Center
Mon 11:36:06 PM 41.7450 -91.0019 265° West 440 506 28,000 -541 Level Chicago Center
Mon 11:37:07 PM 41.7339 -91.1650 265° West 442 509 26,900 -1,339 Descending Chicago Center
Mon 11:38:07 PM 41.7208 -91.3306 264° West 447 514 25,300 -1,388 Descending Chicago Center
Mon 11:39:08 PM 41.7103 -91.4892 265° West 435 501 24,100 -639 Descending Chicago Center
Mon 11:40:09 PM 41.6989 -91.6442 264° West 424 488 24,000 -49 Descending Chicago Center
Mon 11:41:10 PM 41.6875 -91.7997 264° West 423 487 24,000  Level Chicago Center
Mon 11:42:11 PM 41.6767 -91.9567 265° West 425 489 24,000  Level Chicago Center
Mon 11:43:12 PM 41.6617 -92.1453 264° West 428 493 24,000 -295 Level Chicago Center
Mon 11:44:13 PM 41.6489 -92.3022 264° West 429 494 23,400 -1,869 Descending Chicago Center
Mon 11:45:14 PM 41.6378 -92.4564 265° West 421 484 20,200 -3,223 Descending Chicago Center
Mon 11:46:14 PM 41.6256 -92.6008 264° West 400 460 16,900 -3,429 Descending Chicago Center
Mon 11:46:38 PM 41.6217 -92.6597 265° West 380 437 15,400 -3,388 Descending Minneapolis Center
Mon 11:47:39 PM 41.6119 -92.7917 264° West 360 414 12,100 -2,281 Descending Minneapolis Center
Mon 11:48:39 PM 41.6108 -92.9183 269° West 344 396 10,800 -1,140 Descending Minneapolis Center
Mon 11:49:40 PM 41.6081 -93.0247 268° West 286 329 9,800 -1,304 Descending Minneapolis Center
Mon 11:50:11 PM 41.6128 -93.0667 279° West 267 307 8,800 -1,869 Descending Minneapolis Center
Mon 11:50:41 PM 41.6044 -93.1261 259° West 258 297 7,900 -1,770 Descending Minneapolis Center
Mon 11:51:12 PM 41.6075 -93.1592 277° West 250 288 7,000 -1,770 Descending Minneapolis Center
Mon 11:51:42 PM 41.6017 -93.2164 262° West 246 283 6,100 -1,800 Descending Minneapolis Center
Mon 11:52:12 PM 41.6064 -93.2486 281° West 242 278 5,200 -1,800 Descending Minneapolis Center
Mon 11:52:42 PM 41.6014 -93.3025 263° West 235 270 4,300 -1,636 Descending Minneapolis Center
Mon 11:53:07 PM 41.6108 -93.3261 298° West 230 265 3,700 -1,180 Descending Minneapolis Center
Mon 11:53:43 PM 41.6106 -93.3853 270° West 227 261 3,100 -689 Descending Minneapolis Center
Mon 11:54:08 PM 41.6194 -93.4086 297° West 227 261 3,000 -98 Descending Minneapolis Center
Mon 11:54:44 PM 41.6200 -93.4681 271° West 228 262 3,000  Level Minneapolis Center
Mon 11:55:08 PM 41.6306 -93.4994 294° West 231 266 3,000  Level Minneapolis Center
Mon 11:55:45 PM 41.6303 -93.5594 270° West 230 265 3,000  Level Minneapolis Center
Mon 11:56:09 PM 41.6414 -93.5822 303° West 232 267 3,000  Level Minneapolis Center
Mon 11:56:45 PM 41.6419 -93.6397 271° West 222 255 3,000 -444 Level Minneapolis Center
Mon 11:57:03 PM 41.6492 -93.6511 310° West 204 235 2,600 -689 Descending Minneapolis Center
Mon 11:57:46 PM 41.6297 -93.6972 241° Southwest 173 199 2,300 -689 Descending Minneapolis Center
Mon 11:58:04 PM 41.6264 -93.6978 187° South 150 173 1,900 -393 Descending Minneapolis Center
Mon 11:58:47 PM 41.5961 -93.7122 200° South 131 151 1,900 -197 Level Minneapolis Center
Mon 11:59:05 PM 41.5914 -93.7036 126° Southeast 133 153 1,700 -667 Descending Minneapolis Center

Login

Don't have an account? Register now (free) for customized features, flight alerts, and more!